Latest Weather Observations for Maatsuyker Island

IDT60801

Issued at 6:51 am EST Thursday 20 June 2019 (issued every 10 minutes, with the page automatically refreshed every 10 minutes)

About weather observations | Map of weather stations | Latest weather observations for TAS | Other Formats
Station Details ID: 094041 Name: MAATSUYKER ISLAND LIGHTHOUSE Lat: -43.66 Lon: 146.27 Height: 146.5 m
Data from the previous 72 hours. | See also: Recent months at Maatsuyker Island
Date/Time
EST
Temp
°C
App
Temp
°C
Dew
Point
°C
Rel
Hum
%
Delta-T
°C
Wind Press
QNH
hPa
Press
MSL
hPa
Rain since
9am
mm
Dir  Spd
km/h
Gust
km/h
Spd
kts
Gust
kts
20/06:30am 7.0 1.1 4.1 82 1.3 W 24 32 13 17 1023.3 - 5.0
20/06:00am 7.5 1.1 5.0 84 1.1 WSW 28 39 15 21 1023.5 1023.7 5.0
20/05:30am 7.3 0.3 4.3 81 1.3 SW 30 39 16 21 1023.1 - 5.0
20/05:00am 6.6 0.6 3.2 79 1.4 W 24 37 13 20 1023.2 - 4.8
20/04:54am 6.8 0.7 2.9 76 1.6 W 24 37 13 20 1023.5 - 3.2
20/04:52am 7.1 -1.3 3.5 78 1.5 SW 37 50 20 27 1023.3 - 3.0
20/04:30am 8.4 1.3 3.3 70 2.2 W 30 37 16 20 1023.2 - 3.0
20/04:00am 8.2 1.1 3.3 71 2.1 W 30 37 16 20 1023.1 - 3.0
20/03:30am 8.1 0.8 4.3 77 1.7 WNW 32 41 17 22 1023.1 - 3.0
20/03:00am 7.9 1.6 3.9 76 1.7 W 26 35 14 19 1023.5 1023.7 3.0
20/02:30am 7.2 0.6 4.0 80 1.4 WSW 28 43 15 23 1023.8 - 3.0
20/02:00am 7.9 2.4 3.9 76 1.7 W 22 32 12 17 1023.6 - 3.0
20/01:30am 7.5 2.0 3.9 78 1.6 W 22 30 12 16 1023.6 - 3.0
20/01:00am 7.7 2.9 4.8 82 1.3 SW 19 35 10 19 1023.6 - 3.0
20/12:30am 7.0 4.0 4.1 82 1.3 NW 9 13 5 7 1023.7 - 2.8
20/12:00am 7.7 2.3 4.3 79 1.5 SSW 22 30 12 16 1023.8 1024.0 2.8
 
Date/Time
EST
Temp
°C
App
Temp
°C
Dew
Point
°C
Rel
Hum
%
Delta-T
°C
Wind Press
QNH
hPa
Press
MSL
hPa
Rain since
9am
mm
Dir  Spd
km/h
Gust
km/h
Spd
kts
Gust
kts
19/11:30pm 7.4 2.4 3.8 78 1.6 SW 19 26 10 14 1024.0 - 2.8
19/11:00pm 7.3 2.7 3.9 79 1.5 WSW 17 24 9 13 1023.9 - 2.8
19/10:30pm 7.0 3.6 4.0 81 1.3 WSW 11 20 6 11 1024.1 - 2.8
19/10:00pm 7.7 2.5 3.7 76 1.7 WSW 20 30 11 16 1024.0 - 1.0
19/09:30pm 8.0 2.9 4.0 76 1.7 W 20 28 11 15 1024.1 - 1.0
19/09:00pm 8.0 2.8 3.7 74 1.9 WSW 20 28 11 15 1024.2 1024.4 1.0
19/08:30pm 7.7 3.0 3.4 74 1.8 WSW 17 28 9 15 1024.2 - 1.0
19/08:00pm 7.9 1.9 3.6 74 1.9 SSW 24 32 13 17 1024.2 - 1.0
19/07:30pm 7.9 1.2 3.6 74 1.9 SW 28 35 15 19 1024.1 - 1.0
19/07:00pm 8.1 2.5 3.6 73 1.9 SW 22 32 12 17 1024.1 - 1.0
19/06:30pm 8.1 2.5 3.4 72 2.0 SSW 22 30 12 16 1023.9 - 1.0
19/06:00pm 7.8 1.9 3.7 75 1.8 SW 24 33 13 18 1023.8 1024.0 1.0
19/05:30pm 8.0 0.2 3.1 71 2.1 S 33 39 18 21 1023.5 - 1.0
19/05:00pm 7.8 1.5 3.5 74 1.9 S 26 35 14 19 1023.2 - 1.0
19/04:30pm 7.9 0.5 4.1 77 1.7 S 32 54 17 29 1022.8 - 1.0
19/04:29pm 8.0 1.0 4.2 77 1.7 S 30 54 16 29 1022.9 - 1.0
19/04:00pm 8.1 0.8 2.6 68 2.3 SSW 30 39 16 21 1023.0 - 0.8
19/03:30pm 7.8 -0.5 4.0 77 1.7 S 37 54 20 29 1022.8 - 0.8
19/03:25pm 8.1 1.5 4.3 77 1.7 S 28 54 15 29 1022.7 - 0.8
19/03:00pm 7.7 1.0 3.9 77 1.6 S 28 33 15 18 1022.7 1023.0 0.8
19/02:30pm 7.7 1.6 4.7 81 1.3 SSW 26 41 14 22 1022.5 - 0.8
19/02:00pm 7.3 1.5 4.4 82 1.3 S 24 37 13 20 1022.3 - 0.8
19/01:48pm 7.2 0.3 4.5 83 1.2 S 30 48 16 26 1022.3 - 0.8
19/01:36pm 7.9 0.7 5.0 82 1.3 S 32 43 17 23 1022.2 - 0.6
19/01:30pm 7.4 3.6 4.0 79 1.5 WSW 13 24 7 13 1022.4 - 0.6
19/01:00pm 7.7 -0.4 3.0 72 2.0 S 35 46 19 25 1022.4 - 0.6
19/12:30pm 7.9 0.6 4.7 80 1.4 S 32 54 17 29 1022.4 - 0.6
19/12:25pm 7.5 -0.4 4.6 82 1.3 S 35 54 19 29 1022.5 - 0.6
19/12:22pm 7.5 -1.9 4.6 82 1.3 S 43 54 23 29 1022.3 - 0.6
19/12:14pm 8.1 0.9 5.0 81 1.4 SSW 32 52 17 28 1022.4 - 0.6
19/12:00pm 7.3 1.5 4.4 82 1.3 SSW 24 35 13 19 1022.6 1022.9 0.6
19/11:30am 7.8 1.2 4.2 78 1.6 SW 28 43 15 23 1022.6 - 0.4
19/11:00am 7.7 -0.4 3.2 73 1.9 S 35 43 19 23 1022.4 - 0.4
19/10:30am 7.2 -0.5 3.4 77 1.6 S 33 43 18 23 1022.4 - 0.4
19/10:00am 6.8 -1.2 3.6 80 1.4 S 35 56 19 30 1022.3 - 0.4
19/09:50am 7.8 -0.2 3.8 76 1.7 SSW 35 54 19 29 1022.0 - 0.2
19/09:30am 7.8 -1.0 3.5 74 1.9 S 39 50 21 27 1021.8 - 0.0
19/09:07am 7.9 -1.2 3.9 76 1.7 S 41 59 22 32 1021.4 - 0.0
19/09:00am 7.5 -0.6 3.0 73 1.9 S 35 46 19 25 1021.5 1021.8 6.8
19/08:54am 7.1 -1.9 2.4 72 2.0 S 39 43 21 23 1021.3 - 6.8
19/08:40am 7.6 -5.4 3.6 76 1.7 S 61 69 33 37 1020.7 - 6.8
19/08:38am 7.9 -0.9 3.8 75 1.8 S 39 63 21 34 1021.1 - 6.8
19/08:30am 7.7 -1.2 3.0 72 2.0 S 39 46 21 25 1021.1 - 6.8
19/08:00am 7.0 -4.7 3.1 76 1.7 S 54 65 29 35 1020.4 - 6.8
19/07:35am 6.8 -0.4 3.1 77 1.6 S 30 48 16 26 1020.5 - 6.8
19/07:30am 6.5 -0.3 2.9 78 1.5 S 28 30 15 16 1020.6 - 6.8
19/07:25am 6.8 -1.0 2.9 76 1.6 SSW 33 41 18 22 1020.6 - 6.6
19/07:22am 7.1 -1.8 3.0 75 1.7 S 39 41 21 22 1020.4 - 6.6
19/07:10am 7.4 -4.9 3.3 75 1.8 S 57 65 31 35 1019.9 - 6.6
19/07:09am 7.4 -0.8 2.9 73 1.9 S 35 65 19 35 1020.1 - 6.6
19/07:00am 7.0 -0.4 2.1 71 2.0 S 30 41 16 22 1020.2 - 6.6
19/06:55am 6.9 -2.2 2.0 71 2.0 SSW 39 57 21 31 1020.2 - 6.6
19/06:34am 7.2 -2.6 2.1 70 2.1 S 43 48 23 26 1019.9 - 6.6
19/06:30am 7.3 -2.9 3.4 76 1.7 SSE 46 56 25 30 1019.7 - 6.6
19/06:00am 7.3 -2.7 2.4 71 2.0 S 44 56 24 30 1019.3 1019.5 6.6
19/05:30am 7.4 -3.4 2.1 69 2.2 S 48 59 26 32 1019.0 - 6.6
19/05:01am 7.2 -0.1 2.5 72 2.0 S 30 50 16 27 1018.9 - 6.6
19/05:00am 7.1 0.1 2.2 71 2.0 SSW 28 33 15 18 1019.0 - 6.6
19/04:30am 7.4 -4.6 1.3 65 2.5 S 54 61 29 33 1018.3 - 6.6
19/04:00am 7.4 -5.1 1.9 68 2.3 S 57 69 31 37 1017.9 - 6.6
19/03:44am 7.5 -4.4 2.4 70 2.1 S 54 57 29 31 1018.2 - 6.6
19/03:42am 7.5 -0.4 2.4 70 2.1 SSW 33 52 18 28 1018.4 - 6.6
19/03:30am 7.1 -1.2 2.0 70 2.1 SSW 35 46 19 25 1018.7 - 6.6
19/03:00am 7.6 -4.5 0.8 62 2.7 S 54 63 29 34 1018.0 1018.2 6.6
19/02:30am 7.6 -4.3 2.3 69 2.2 S 54 65 29 35 1018.1 - 6.6
19/02:00am 7.8 -3.0 2.1 67 2.4 S 48 65 26 35 1018.0 - 6.6
19/01:30am 7.8 -3.4 2.1 67 2.4 S 50 59 27 32 1017.6 - 6.6
19/01:00am 8.2 -3.1 3.7 73 2.0 S 52 65 28 35 1017.2 - 6.6
19/12:30am 8.2 -3.1 3.5 72 2.0 S 52 61 28 33 1017.0 - 6.6
19/12:11am 8.1 -3.2 3.2 71 2.1 S 52 70 28 38 1016.9 - 6.6
19/12:00am 8.3 -4.0 3.4 71 2.1 S 57 67 31 36 1016.8 1017.0 6.6
 
Date/Time
EST
Temp
°C
App
Temp
°C
Dew
Point
°C
Rel
Hum
%
Delta-T
°C
Wind Press
QNH
hPa
Press
MSL
hPa
Rain since
9am
mm
Dir  Spd
km/h
Gust
km/h
Spd
kts
Gust
kts
18/11:30pm 8.2 -3.2 3.1 70 2.2 S 52 63 28 34 1016.7 - 6.6
18/11:00pm 8.1 -4.0 3.2 71 2.1 S 56 69 30 37 1016.5 - 6.6
18/10:30pm 8.4 -3.7 4.2 75 1.8 S 57 69 31 37 1016.0 - 6.6
18/10:00pm 8.4 -5.1 4.8 78 1.6 S 65 72 35 39 1015.2 - 6.6
18/09:30pm 8.5 -4.9 5.4 81 1.4 S 65 76 35 41 1014.9 - 6.6
18/09:00pm 8.3 -5.0 5.8 84 1.1 S 65 76 35 41 1014.5 1014.7 6.6
18/08:30pm 8.0 -6.1 5.8 86 1.0 S 69 82 37 44 1013.8 - 6.6
18/08:00pm 7.5 -5.7 6.1 91 0.6 S 65 89 35 48 1013.2 - 6.6
18/07:40pm 7.2 -4.5 6.0 92 0.5 S 57 76 31 41 1013.6 - 5.8
18/07:30pm 6.9 -6.0 5.7 92 0.5 S 63 78 34 42 1012.8 - 5.0
18/07:19pm 7.4 -6.6 6.0 91 0.6 SSE 69 74 37 40 1012.3 - 3.8
18/07:00pm 7.2 -6.9 5.8 91 0.6 S 69 78 37 42 1012.6 - 3.4
18/06:34pm 7.4 -6.8 6.2 92 0.5 S 70 89 38 48 1012.0 - 2.8
18/06:30pm 7.7 -6.8 6.5 92 0.6 S 72 85 39 46 1011.6 - 2.8
18/06:08pm 8.2 -5.3 6.8 91 0.7 S 67 93 36 50 1010.8 - 2.0
18/06:00pm 8.1 -5.8 6.7 91 0.7 S 69 82 37 44 1011.0 1011.2 2.0
18/05:30pm 8.1 -6.3 6.7 91 0.7 S 72 82 39 44 1010.2 - 1.8
18/05:00pm 8.3 -6.5 6.9 91 0.7 S 74 87 40 47 1009.5 - 1.8
18/04:51pm 8.4 -6.0 7.0 91 0.7 S 72 91 39 49 1009.3 - 1.6
18/04:30pm 8.2 -7.4 6.8 91 0.7 S 78 87 42 47 1008.5 - 1.6
18/04:00pm 8.2 -7.1 6.2 87 0.9 S 76 89 41 48 1008.4 - 1.6
18/03:30pm 8.3 -7.1 5.8 84 1.1 S 76 89 41 48 1008.3 - 1.6
18/03:00pm 8.4 -5.5 6.4 87 0.9 S 69 82 37 44 1007.8 1008.0 1.6
18/02:30pm 8.3 -6.5 6.8 90 0.7 S 74 82 40 44 1007.1 - 1.6
18/02:00pm 8.0 -5.5 6.8 92 0.6 S 67 80 36 43 1007.2 - 1.4
18/01:31pm 8.2 -3.7 6.8 91 0.7 SSW 59 78 32 42 1007.0 - 1.2
18/01:30pm 8.3 -3.6 6.9 91 0.7 SSW 59 72 32 39 1007.1 - 1.2
18/01:16pm 8.5 -5.5 7.0 90 0.7 S 70 76 38 41 1006.4 - 1.2
18/01:14pm 8.8 -1.7 7.3 90 0.7 SW 52 74 28 40 1006.7 - 1.2
18/01:11pm 9.0 -1.1 7.3 89 0.8 SW 50 61 27 33 1006.9 - 1.2
18/01:10pm 9.4 3.5 7.7 89 0.8 W 28 57 15 31 1006.8 - 1.2
18/01:00pm 9.4 3.6 7.8 90 0.8 WNW 28 33 15 18 1006.4 - 1.2
18/12:30pm 9.3 4.2 7.7 90 0.8 WNW 24 26 13 14 1006.5 - 1.0
18/12:00pm 9.3 5.0 7.7 90 0.8 W 20 26 11 14 1006.6 1006.8 1.0
18/11:30am 9.6 4.5 7.7 88 0.9 N 24 35 13 19 1006.5 - 0.6
18/11:00am 9.9 4.8 7.8 87 1.0 NNW 24 39 13 21 1006.6 - 0.6
18/10:30am 10.0 6.0 8.3 89 0.8 NNW 19 22 10 12 1007.1 - 0.4
18/10:00am 10.0 5.8 8.1 88 0.9 NNW 20 28 11 15 1007.2 - 0.4
18/09:30am 10.1 7.5 7.9 86 1.1 NNW 11 15 6 8 1007.1 - 0.0
18/09:00am 10.4 5.4 8.2 86 1.1 NW 24 32 13 17 1007.1 1007.3 2.4
18/08:30am 10.4 3.7 8.2 86 1.1 NW 33 41 18 22 1007.1 - 2.4
18/08:00am 10.4 6.1 8.0 85 1.2 NNW 20 33 11 18 1007.4 - 2.4
18/07:30am 10.2 5.1 7.8 85 1.2 NNW 24 32 13 17 1007.6 - 2.4
18/07:00am 10.0 3.3 7.3 83 1.3 NNW 32 41 17 22 1007.5 - 2.4
18/06:33am 10.6 4.0 7.8 83 1.4 NW 32 54 17 29 1007.7 - 2.0
18/06:30am 10.6 5.1 7.5 81 1.5 NW 26 39 14 21 1007.9 - 2.0
18/06:00am 10.3 3.6 7.2 81 1.5 NW 32 41 17 22 1008.1 1008.3 2.0
18/05:30am 10.2 3.0 7.8 85 1.2 NW 35 46 19 25 1008.2 - 2.0
18/05:15am 10.9 4.5 7.0 77 1.9 NNW 30 50 16 27 1008.2 - 2.0
18/05:00am 11.1 6.3 7.2 77 1.9 NNW 22 30 12 16 1008.3 - 2.0
18/04:30am 10.5 5.0 7.4 81 1.5 NNW 26 35 14 19 1008.4 - 2.0
18/04:00am 10.7 3.4 7.4 80 1.6 NNW 35 46 19 25 1008.8 - 2.0
18/03:30am 10.7 3.4 7.0 78 1.8 NNW 35 43 19 23 1009.7 - 2.0
18/03:00am 10.9 2.0 6.8 76 2.0 NNW 43 56 23 30 1009.9 1010.1 2.0
18/02:30am 11.3 1.4 6.6 73 2.2 NNW 48 67 26 36 1009.9 - 2.0
18/02:26am 11.3 1.4 6.4 72 2.3 NNW 48 67 26 36 1009.9 - 2.0
18/02:09am 11.7 0.8 5.6 66 2.9 NNW 52 67 28 36 1009.8 - 2.0
18/02:02am 11.8 5.4 5.4 65 3.0 NNW 28 48 15 26 1010.1 - 2.0
18/02:00am 11.7 5.8 5.8 67 2.8 NNW 26 39 14 21 1010.3 - 2.0
18/01:30am 11.5 6.1 6.2 70 2.5 NNW 24 32 13 17 1010.6 - 2.0
18/01:00am 11.1 3.5 5.8 70 2.5 NNW 35 46 19 25 1010.8 - 2.0
18/12:30am 11.5 4.9 6.2 70 2.5 NW 30 43 16 23 1011.3 - 2.0
18/12:00am 11.4 4.0 6.7 73 2.2 NNW 35 44 19 24 1011.4 1011.6 2.0
 
Date/Time
EST
Temp
°C
App
Temp
°C
Dew
Point
°C
Rel
Hum
%
Delta-T
°C
Wind Press
QNH
hPa
Press
MSL
hPa
Rain since
9am
mm
Dir  Spd
km/h
Gust
km/h
Spd
kts
Gust
kts
17/11:30pm 11.0 4.1 7.3 78 1.8 NNW 33 44 18 24 1011.7 - 2.0
17/11:00pm 10.7 4.1 7.6 81 1.5 NNW 32 43 17 23 1012.1 - 2.0
17/10:30pm 10.9 3.9 8.3 84 1.3 NNW 35 46 19 25 1012.3 - 2.0
17/10:00pm 10.8 4.2 8.6 86 1.1 NNW 33 44 18 24 1012.7 - 2.0
17/09:43pm 10.9 3.5 8.3 84 1.3 NW 37 56 20 30 1012.6 - 1.8
17/09:30pm 10.6 2.8 8.4 86 1.1 NNW 39 52 21 28 1012.7 - 1.6
17/09:00pm 10.7 4.1 8.6 87 1.0 NNW 33 46 18 25 1012.8 1013.0 1.6
17/08:30pm 10.6 4.2 8.7 88 0.9 NNW 32 46 17 25 1013.0 - 1.2
17/08:14pm 10.7 4.2 8.8 88 0.9 NNW 33 52 18 28 1013.4 - 1.2
17/08:00pm 11.0 4.2 9.1 88 1.0 NNW 35 48 19 26 1013.4 - 1.2
17/07:30pm 11.0 3.4 8.9 87 1.0 NNW 39 54 21 29 1013.3 - 1.0
17/07:22pm 11.0 3.4 8.9 87 1.0 NNW 39 57 21 31 1013.4 - 1.0
17/07:00pm 10.8 2.8 8.9 88 0.9 NNW 41 56 22 30 1013.3 - 0.8
17/06:30pm 11.2 3.9 8.8 85 1.2 NNW 37 48 20 26 1013.2 - 0.0
17/06:00pm 11.4 3.0 9.0 85 1.2 NNW 43 57 23 31 1013.2 1013.4 0.0
17/05:30pm 11.6 3.5 8.8 83 1.4 NNW 41 54 22 29 1013.1 - 0.0
17/05:00pm 11.6 3.5 8.6 82 1.5 NNW 41 56 22 30 1013.3 - 0.0
17/04:30pm 11.7 4.8 8.7 82 1.5 NNW 35 48 19 26 1013.7 - 0.0
17/04:00pm 12.2 5.6 8.7 79 1.8 NNW 33 46 18 25 1013.7 - 0.0
17/03:39pm 12.5 5.5 8.4 76 2.0 NNW 35 54 19 29 1013.9 - 0.0
17/03:30pm 12.6 5.6 8.5 76 2.1 NNW 35 48 19 26 1013.8 - 0.0
17/03:00pm 12.7 5.8 8.8 77 2.0 NNW 35 48 19 26 1013.9 1014.1 0.0
17/02:30pm 12.6 5.9 8.3 75 2.1 NNW 33 48 18 26 1014.0 - 0.0
17/02:00pm 12.5 6.1 8.4 76 2.0 NNW 32 39 17 21 1014.3 - 0.0
17/01:30pm 12.5 5.9 8.4 76 2.0 NNW 33 43 18 23 1014.2 - 0.0
17/01:00pm 12.2 5.2 8.5 78 1.8 NW 35 44 19 24 1014.6 - 0.0
17/12:30pm 11.8 4.8 8.6 81 1.6 NNW 35 43 19 23 1014.9 - 0.0
17/12:00pm 11.2 3.0 8.4 83 1.4 NW 41 54 22 29 1015.2 1015.5 0.0
17/11:30am 11.6 3.5 8.8 83 1.4 NNW 41 56 22 30 1015.6 - 0.0
17/11:00am 11.3 4.0 8.9 85 1.2 NNW 37 50 20 27 1015.9 - 0.0
17/10:45am 11.3 4.1 9.0 86 1.2 NW 37 56 20 30 1016.1 - 0.0
17/10:30am 11.1 3.4 8.8 86 1.1 NW 39 50 21 27 1016.4 - 0.0
17/10:00am 10.7 4.1 8.6 87 1.0 NW 33 46 18 25 1016.6 - 0.0
17/09:30am 11.2 4.2 8.4 83 1.4 NW 35 50 19 27 1016.6 - 0.0
17/09:00am 11.3 4.7 8.5 83 1.4 NW 33 43 18 23 1016.7 1016.9 1.2
17/08:30am 11.3 4.7 8.5 83 1.4 NW 33 44 18 24 1016.8 - 1.2
17/08:00am 11.2 4.2 8.4 83 1.4 NNW 35 46 19 25 1016.6 - 1.2
17/07:30am 10.9 4.2 8.3 84 1.3 NW 33 43 18 23 1016.6 - 1.2
17/07:00am 10.7 3.6 7.9 83 1.4 NW 35 46 19 25 1016.5 - 1.2

Other formats

Comma delimited format used in spreadsheet applications
http://www.bom.gov.au/fwo/IDT60801/IDT60801.94962.axf

JavaScript Object Notation format (JSON) in row-major order
http://www.bom.gov.au/fwo/IDT60801/IDT60801.94962.json

Data quality

Most of these data are generated automatically and are frequently updated. Quality checks on data are not normally performed. It is possible for incorrect values to appear. Refer to information at About Latest Weather Observations and please check the disclaimer before using these data.